createdAt,value
2023-03-18T00:01:43.408Z,97444.34
2023-03-18T00:04:12.815Z,97450.19
2023-03-18T00:06:41.065Z,97452.59
2023-03-18T00:09:09.506Z,97450.03
2023-03-18T00:11:39.427Z,97452.34
2023-03-18T00:14:08.759Z,97457.25
2023-03-18T00:16:37.412Z,97444.28
2023-03-18T00:19:06.863Z,97454.44
2023-03-18T00:21:35.151Z,97445.13
2023-03-18T00:24:03.420Z,97445.34
2023-03-18T00:26:31.966Z,97452.53
2023-03-18T00:29:01.736Z,97448.88
2023-03-18T00:31:30.351Z,97442.81
2023-03-18T00:33:59.400Z,97441.91
2023-03-18T00:36:28.547Z,97443.59
2023-03-18T00:38:58.462Z,97445.66
2023-03-18T00:41:27.524Z,97438.94
2023-03-18T00:43:56.740Z,97431.94
2023-03-18T00:46:28.703Z,97436.97
2023-03-18T00:49:00.477Z,97433.91
2023-03-18T00:51:30.281Z,97436.88
2023-03-18T00:54:00.605Z,97437.75
2023-03-18T00:56:32.287Z,97430.28
2023-03-18T00:59:02.418Z,97430.00
2023-03-18T01:01:32.528Z,97441.09
2023-03-18T01:04:02.009Z,97423.97
2023-03-18T01:06:32.610Z,97435.34
2023-03-18T01:09:02.721Z,97426.84
2023-03-18T01:11:31.434Z,97420.88
2023-03-18T01:14:00.729Z,97421.69
2023-03-18T01:16:30.219Z,97422.72
2023-03-18T01:19:04.531Z,97416.69
2023-03-18T01:21:34.009Z,97414.44
2023-03-18T01:24:04.478Z,97415.09
2023-03-18T01:26:34.994Z,97417.84
2023-03-18T01:29:03.872Z,97417.84
2023-03-18T01:31:34.799Z,97417.34
2023-03-18T01:34:09.794Z,97410.97
2023-03-18T01:36:51.886Z,97415.44
2023-03-18T01:39:23.499Z,97413.78
2023-03-18T01:41:52.457Z,97419.59
2023-03-18T01:44:29.351Z,97413.25
2023-03-18T01:46:58.921Z,97412.44
2023-03-18T01:49:34.071Z,97417.34
2023-03-18T01:52:07.273Z,97413.78
2023-03-18T01:54:39.432Z,97414.69
2023-03-18T01:57:08.045Z,97409.84
2023-03-18T01:59:39.654Z,97415.00
2023-03-18T02:02:10.427Z,97414.47
2023-03-18T02:04:43.535Z,97415.97
2023-03-18T02:07:18.226Z,97406.75
2023-03-18T02:09:47.280Z,97408.09
2023-03-18T02:12:19.840Z,97415.19
2023-03-18T02:14:48.350Z,97416.28
2023-03-18T02:17:27.825Z,97416.66
2023-03-18T02:20:06.982Z,97411.66
2023-03-18T02:22:38.518Z,97418.63
2023-03-18T02:25:18.966Z,97415.03
2023-03-18T02:27:51.561Z,97417.66
2023-03-18T02:30:22.890Z,97422.59
2023-03-18T02:32:54.600Z,97415.78
2023-03-18T02:35:23.244Z,97424.94
2023-03-18T02:37:53.357Z,97416.00
2023-03-18T02:40:24.657Z,97414.00
2023-03-18T02:42:55.417Z,97417.78
2023-03-18T02:45:39.652Z,97419.81
2023-03-18T02:48:12.006Z,97413.91
2023-03-18T02:50:42.323Z,97408.28
2023-03-18T02:53:13.279Z,97416.75
2023-03-18T02:55:42.682Z,97416.22
2023-03-18T02:58:12.757Z,97403.16
2023-03-18T03:00:42.116Z,97411.41
2023-03-18T03:03:10.582Z,97412.03
2023-03-18T03:05:38.880Z,97422.38
2023-03-18T03:08:07.500Z,97414.75
2023-03-18T03:10:40.437Z,97420.06
2023-03-18T03:13:09.889Z,97419.06
2023-03-18T03:15:41.674Z,97418.59
2023-03-18T03:18:10.332Z,97419.34
2023-03-18T03:20:39.225Z,97422.94
2023-03-18T03:23:08.342Z,97425.28
2023-03-18T03:25:36.882Z,97424.00
2023-03-18T03:28:06.612Z,97430.97
2023-03-18T03:30:35.311Z,97430.00
2023-03-18T03:33:05.951Z,97433.00
2023-03-18T03:35:34.891Z,97437.72
2023-03-18T03:38:03.568Z,97431.38
2023-03-18T03:40:32.327Z,97441.06
2023-03-18T03:43:00.760Z,97436.09
2023-03-18T03:45:29.222Z,97435.69
2023-03-18T03:47:57.500Z,97440.59
2023-03-18T03:50:27.207Z,97449.56
2023-03-18T03:52:55.472Z,97446.91
2023-03-18T03:55:24.106Z,97449.78
2023-03-18T03:57:54.493Z,97453.09
2023-03-18T04:00:23.672Z,97450.84
2023-03-18T04:02:53.389Z,97444.94
2023-03-18T04:05:25.569Z,97444.81
2023-03-18T04:07:55.781Z,97451.91
2023-03-18T04:10:36.651Z,97443.97
2023-03-18T04:13:07.093Z,97450.50
2023-03-18T04:15:35.409Z,97453.38
2023-03-18T04:18:31.405Z,97448.66
2023-03-18T04:20:59.964Z,97455.06
2023-03-18T04:23:42.459Z,97452.78
2023-03-18T04:26:11.758Z,97451.00
2023-03-18T04:28:40.530Z,97450.44
2023-03-18T04:31:11.041Z,97454.25
2023-03-18T04:33:39.899Z,97457.19
2023-03-18T04:36:09.398Z,97459.53
2023-03-18T04:38:39.415Z,97448.09
2023-03-18T04:41:09.846Z,97455.63
2023-03-18T04:43:39.597Z,97453.59
2023-03-18T04:46:08.876Z,97450.22
2023-03-18T04:48:37.555Z,97459.81
2023-03-18T04:51:09.396Z,97460.09
2023-03-18T04:53:38.311Z,97461.69
2023-03-18T04:56:08.939Z,97454.44
2023-03-18T04:58:53.151Z,97465.56
2023-03-18T05:01:28.475Z,97457.53
2023-03-18T05:03:57.269Z,97463.31
2023-03-18T05:06:32.024Z,97474.38
2023-03-18T05:09:06.859Z,97474.75
2023-03-18T05:11:36.460Z,97477.44
2023-03-18T05:14:15.737Z,97483.00
2023-03-18T05:16:48.255Z,97482.41
2023-03-18T05:19:18.050Z,97491.34
2023-03-18T05:21:54.411Z,97485.38
2023-03-18T05:24:23.647Z,97487.38
2023-03-18T05:26:52.252Z,97489.78
2023-03-18T05:29:25.918Z,97497.59
2023-03-18T05:32:08.195Z,97491.59
2023-03-18T05:34:38.524Z,97495.31
2023-03-18T05:37:09.269Z,97491.78
2023-03-18T05:39:41.721Z,97495.41
2023-03-18T05:42:14.644Z,97496.69
2023-03-18T05:44:45.603Z,97496.03
2023-03-18T05:47:16.604Z,97504.94
2023-03-18T05:50:01.780Z,97499.97
2023-03-18T05:52:30.264Z,97497.59
2023-03-18T05:55:03.396Z,97502.72
2023-03-18T05:57:36.005Z,97500.47
2023-03-18T06:00:11.558Z,97501.56
2023-03-18T06:02:47.761Z,97499.31
2023-03-18T06:05:18.653Z,97490.56
2023-03-18T06:07:48.707Z,97502.53
2023-03-18T06:10:18.212Z,97498.25
2023-03-18T06:12:49.488Z,97504.28
2023-03-18T06:15:21.796Z,97499.81
2023-03-18T06:17:51.081Z,97495.19
2023-03-18T06:20:19.969Z,97504.22
2023-03-18T06:22:49.788Z,97505.38
2023-03-18T06:25:20.322Z,97507.06
2023-03-18T06:27:50.071Z,97506.56
2023-03-18T06:30:22.429Z,97508.19
2023-03-18T06:32:51.104Z,97510.59
2023-03-18T06:35:21.894Z,97514.97
2023-03-18T06:37:50.280Z,97514.38
2023-03-18T06:40:18.785Z,97520.16
2023-03-18T06:42:49.110Z,97530.50
2023-03-18T06:45:35.280Z,97527.88
2023-03-18T06:48:09.664Z,97526.50
2023-03-18T06:50:42.316Z,97531.31
2023-03-18T06:53:20.407Z,97544.78
2023-03-18T06:55:49.945Z,97535.44
2023-03-18T06:58:21.516Z,97532.44
2023-03-18T07:01:01.830Z,97527.38
2023-03-18T07:03:36.533Z,97527.78
2023-03-18T07:06:05.976Z,97532.91
2023-03-18T07:08:35.141Z,97536.00
2023-03-18T07:11:05.369Z,97536.75
2023-03-18T07:13:34.685Z,97543.41
2023-03-18T07:16:07.278Z,97532.88
2023-03-18T07:18:35.721Z,97536.91
2023-03-18T07:21:03.995Z,97532.38
2023-03-18T07:23:32.503Z,97532.03
2023-03-18T07:26:02.190Z,97536.34
2023-03-18T07:28:32.508Z,97525.50
2023-03-18T07:31:04.027Z,97531.69
2023-03-18T07:33:34.316Z,97533.84
2023-03-18T07:36:04.219Z,97540.59
2023-03-18T07:38:34.191Z,97539.41
2023-03-18T07:41:02.548Z,97547.78
2023-03-18T07:43:32.538Z,97550.84
2023-03-18T07:46:07.475Z,97556.00
2023-03-18T07:48:40.574Z,97555.22
2023-03-18T07:54:08.396Z,97554.03
2023-03-18T07:57:08.474Z,97551.78
2023-03-18T08:00:01.281Z,97551.38
2023-03-18T08:02:52.160Z,97554.84
2023-03-18T08:05:27.538Z,97561.94
2023-03-18T08:07:55.769Z,97563.81
2023-03-18T08:10:24.697Z,97558.97
2023-03-18T08:12:54.129Z,97564.75
2023-03-18T08:15:23.191Z,97562.94
2023-03-18T08:17:52.662Z,97563.47
2023-03-18T08:20:22.055Z,97567.16
2023-03-18T08:22:51.782Z,97556.28
2023-03-18T08:25:22.238Z,97560.91
2023-03-18T08:27:50.796Z,97553.56
2023-03-18T08:30:19.697Z,97556.28
2023-03-18T08:32:48.424Z,97557.41
2023-03-18T08:35:17.013Z,97562.00
2023-03-18T08:37:45.389Z,97567.22
2023-03-18T08:40:15.390Z,97568.44
2023-03-18T08:42:43.641Z,97557.47
2023-03-18T08:45:13.204Z,97561.69
2023-03-18T08:47:41.551Z,97555.75
2023-03-18T08:50:11.215Z,97552.53
2023-03-18T08:52:39.863Z,97542.31
2023-03-18T08:55:09.758Z,97544.03
2023-03-18T08:57:39.458Z,97545.78
2023-03-18T09:00:09.147Z,97550.13
2023-03-18T09:02:37.458Z,97547.59
2023-03-18T09:05:06.648Z,97552.78
2023-03-18T09:07:35.037Z,97551.03
2023-03-18T09:10:04.524Z,97545.06
2023-03-18T09:12:32.790Z,97541.63
2023-03-18T09:15:03.667Z,97542.50
2023-03-18T09:17:50.913Z,97534.72
2023-03-18T09:20:22.703Z,97543.34
2023-03-18T09:22:52.169Z,97532.97
2023-03-18T09:25:20.928Z,97532.81
2023-03-18T09:27:49.416Z,97534.50
2023-03-18T09:30:19.302Z,97537.03
2023-03-18T09:32:47.744Z,97537.81
2023-03-18T09:35:17.800Z,97536.19
2023-03-18T09:37:47.736Z,97540.41
2023-03-18T09:40:22.571Z,97535.59
2023-03-18T09:42:57.989Z,97531.13
2023-03-18T09:45:32.404Z,97524.91
2023-03-18T09:48:17.637Z,97532.13
2023-03-18T09:50:51.480Z,97520.75
2023-03-18T09:53:22.600Z,97522.63
2023-03-18T09:55:54.041Z,97514.66
2023-03-18T09:58:25.791Z,97522.41
2023-03-18T10:00:58.917Z,97522.50
2023-03-18T10:03:33.453Z,97514.75
2023-03-18T10:06:05.864Z,97521.91
2023-03-18T10:08:51.401Z,97521.59
2023-03-18T10:11:24.512Z,97528.75
